sensor_id;sensor_type;location;lat;lon;timestamp;pressure;altitude;pressure_sealevel;temperature;humidity
46111;BME280;31849;55.992;37.252;2022-12-29T00:02:09;98803.91;;;1.72;60.86
46111;BME280;31849;55.992;37.252;2022-12-29T00:07:12;98821.44;;;1.53;60.60
46111;BME280;31849;55.992;37.252;2022-12-29T00:12:17;98816.53;;;1.28;61.13
46111;BME280;31849;55.992;37.252;2022-12-29T00:17:21;98826.19;;;1.03;60.67
46111;BME280;31849;55.992;37.252;2022-12-29T00:22:25;98831.81;;;0.90;61.42
46111;BME280;31849;55.992;37.252;2022-12-29T00:27:46;98844.31;;;1.11;60.79
46111;BME280;31849;55.992;37.252;2022-12-29T00:33:09;98839.38;;;1.18;61.02
46111;BME280;31849;55.992;37.252;2022-12-29T00:38:31;98824.69;;;1.11;60.90
46111;BME280;31849;55.992;37.252;2022-12-29T00:43:54;98848.00;;;1.22;60.66
46111;BME280;31849;55.992;37.252;2022-12-29T00:49:13;98843.72;;;1.21;60.90
46111;BME280;31849;55.992;37.252;2022-12-29T00:54:36;98850.28;;;1.11;60.71
46111;BME280;31849;55.992;37.252;2022-12-29T00:59:42;98841.94;;;1.18;60.47
46111;BME280;31849;55.992;37.252;2022-12-29T01:04:46;98854.72;;;1.18;60.62
46111;BME280;31849;55.992;37.252;2022-12-29T01:09:49;98851.19;;;1.13;60.78
46111;BME280;31849;55.992;37.252;2022-12-29T01:15:13;98853.22;;;1.25;60.47
46111;BME280;31849;55.992;37.252;2022-12-29T01:20:18;98844.03;;;1.00;60.78
46111;BME280;31849;55.992;37.252;2022-12-29T01:25:21;98854.16;;;0.95;60.60
46111;BME280;31849;55.992;37.252;2022-12-29T01:30:26;98856.88;;;0.69;60.89
46111;BME280;31849;55.992;37.252;2022-12-29T01:35:30;98857.47;;;0.29;61.23
46111;BME280;31849;55.992;37.252;2022-12-29T01:40:43;98860.56;;;0.19;61.86
46111;BME280;31849;55.992;37.252;2022-12-29T01:45:51;98853.25;;;0.31;61.48
46111;BME280;31849;55.992;37.252;2022-12-29T01:50:55;98853.53;;;0.40;61.49
46111;BME280;31849;55.992;37.252;2022-12-29T01:56:01;98856.53;;;0.57;60.87
46111;BME280;31849;55.992;37.252;2022-12-29T02:01:08;98868.31;;;0.82;60.67
46111;BME280;31849;55.992;37.252;2022-12-29T02:06:15;98876.06;;;0.85;60.49
46111;BME280;31849;55.992;37.252;2022-12-29T02:11:19;98893.88;;;0.81;60.57
46111;BME280;31849;55.992;37.252;2022-12-29T02:16:39;98896.06;;;0.67;60.35
46111;BME280;31849;55.992;37.252;2022-12-29T02:22:08;98882.47;;;0.69;60.29
46111;BME280;31849;55.992;37.252;2022-12-29T02:32:53;98890.22;;;0.42;60.48
46111;BME280;31849;55.992;37.252;2022-12-29T02:38:08;98893.34;;;0.32;60.15
46111;BME280;31849;55.992;37.252;2022-12-29T02:43:24;98882.72;;;0.48;60.02
46111;BME280;31849;55.992;37.252;2022-12-29T02:48:34;98878.31;;;0.43;59.96
46111;BME280;31849;55.992;37.252;2022-12-29T02:53:41;98874.66;;;0.34;60.25
46111;BME280;31849;55.992;37.252;2022-12-29T02:59:02;98891.00;;;0.40;60.55
46111;BME280;31849;55.992;37.252;2022-12-29T03:04:21;98892.22;;;0.52;60.57
46111;BME280;31849;55.992;37.252;2022-12-29T03:09:37;98895.00;;;0.30;60.65
46111;BME280;31849;55.992;37.252;2022-12-29T03:14:52;98903.66;;;0.35;60.41
46111;BME280;31849;55.992;37.252;2022-12-29T03:20:20;98907.97;;;0.36;60.66
46111;BME280;31849;55.992;37.252;2022-12-29T03:25:31;98904.38;;;0.31;60.42
46111;BME280;31849;55.992;37.252;2022-12-29T03:30:36;98917.13;;;0.29;60.72
46111;BME280;31849;55.992;37.252;2022-12-29T03:35:44;98928.38;;;0.34;60.78
46111;BME280;31849;55.992;37.252;2022-12-29T03:40:51;98929.06;;;0.29;60.65
46111;BME280;31849;55.992;37.252;2022-12-29T03:45:56;98928.03;;;0.24;60.56
46111;BME280;31849;55.992;37.252;2022-12-29T03:51:01;98936.69;;;0.27;60.57
46111;BME280;31849;55.992;37.252;2022-12-29T03:56:05;98935.25;;;0.08;60.58
46111;BME280;31849;55.992;37.252;2022-12-29T04:01:08;98938.53;;;0.04;60.62
46111;BME280;31849;55.992;37.252;2022-12-29T04:06:13;98955.84;;;0.13;60.74
46111;BME280;31849;55.992;37.252;2022-12-29T04:11:17;98945.13;;;0.25;59.80
46111;BME280;31849;55.992;37.252;2022-12-29T04:16:20;98949.91;;;0.14;60.59
46111;BME280;31849;55.992;37.252;2022-12-29T04:21:25;98951.78;;;0.20;60.24
46111;BME280;31849;55.992;37.252;2022-12-29T04:26:29;98948.94;;;0.10;60.67
46111;BME280;31849;55.992;37.252;2022-12-29T04:31:32;98948.06;;;0.10;60.31
46111;BME280;31849;55.992;37.252;2022-12-29T04:36:38;98957.34;;;0.06;60.29
46111;BME280;31849;55.992;37.252;2022-12-29T04:41:42;98962.75;;;-0.12;60.64
46111;BME280;31849;55.992;37.252;2022-12-29T04:46:46;98961.66;;;-0.19;60.82
46111;BME280;31849;55.992;37.252;2022-12-29T04:51:51;98972.50;;;-0.26;60.43
46111;BME280;31849;55.992;37.252;2022-12-29T04:56:54;98976.91;;;-0.47;60.68
46111;BME280;31849;55.992;37.252;2022-12-29T05:01:58;98966.31;;;-0.58;60.87
46111;BME280;31849;55.992;37.252;2022-12-29T05:07:03;98982.03;;;-0.47;60.82
46111;BME280;31849;55.992;37.252;2022-12-29T05:12:07;98973.22;;;-0.56;60.40
46111;BME280;31849;55.992;37.252;2022-12-29T05:17:11;98982.06;;;-0.70;60.64
46111;BME280;31849;55.992;37.252;2022-12-29T05:22:16;98992.28;;;-0.70;60.73
46111;BME280;31849;55.992;37.252;2022-12-29T05:27:20;98995.69;;;-0.71;60.72
46111;BME280;31849;55.992;37.252;2022-12-29T05:32:23;98992.19;;;-0.73;60.83
46111;BME280;31849;55.992;37.252;2022-12-29T05:37:29;98999.84;;;-0.73;60.88
46111;BME280;31849;55.992;37.252;2022-12-29T05:42:33;98996.59;;;-0.69;61.04
46111;BME280;31849;55.992;37.252;2022-12-29T05:47:36;98992.59;;;-0.62;61.05
46111;BME280;31849;55.992;37.252;2022-12-29T05:52:41;99001.31;;;-0.56;60.67
46111;BME280;31849;55.992;37.252;2022-12-29T05:57:44;98998.59;;;-0.34;60.65
46111;BME280;31849;55.992;37.252;2022-12-29T06:02:48;99004.78;;;-0.54;60.55
46111;BME280;31849;55.992;37.252;2022-12-29T06:07:53;99007.75;;;-0.65;60.41
46111;BME280;31849;55.992;37.252;2022-12-29T06:12:57;99012.13;;;-0.87;60.39
46111;BME280;31849;55.992;37.252;2022-12-29T06:18:01;99004.47;;;-1.11;60.37
46111;BME280;31849;55.992;37.252;2022-12-29T06:23:06;99011.88;;;-1.17;60.57
46111;BME280;31849;55.992;37.252;2022-12-29T06:28:09;99023.19;;;-1.33;60.67
46111;BME280;31849;55.992;37.252;2022-12-29T06:33:13;99019.25;;;-1.48;60.67
46111;BME280;31849;55.992;37.252;2022-12-29T06:38:19;99014.06;;;-1.27;60.18
46111;BME280;31849;55.992;37.252;2022-12-29T06:43:23;99016.16;;;-1.16;60.05
46111;BME280;31849;55.992;37.252;2022-12-29T06:48:26;99020.00;;;-1.28;60.31
46111;BME280;31849;55.992;37.252;2022-12-29T06:53:31;99011.75;;;-1.20;60.46
46111;BME280;31849;55.992;37.252;2022-12-29T06:58:35;99019.03;;;-1.07;60.00
46111;BME280;31849;55.992;37.252;2022-12-29T07:03:41;99030.84;;;-0.86;60.06
46111;BME280;31849;55.992;37.252;2022-12-29T07:08:46;99027.16;;;-0.95;59.99
46111;BME280;31849;55.992;37.252;2022-12-29T07:13:50;99032.94;;;-1.23;60.32
46111;BME280;31849;55.992;37.252;2022-12-29T07:18:53;99034.09;;;-0.91;59.90
46111;BME280;31849;55.992;37.252;2022-12-29T07:23:58;99050.03;;;-0.74;59.47
46111;BME280;31849;55.992;37.252;2022-12-29T07:29:02;99042.75;;;-0.39;58.81
46111;BME280;31849;55.992;37.252;2022-12-29T07:34:05;99041.03;;;-0.40;58.97
46111;BME280;31849;55.992;37.252;2022-12-29T07:39:10;99032.66;;;-0.84;59.64
46111;BME280;31849;55.992;37.252;2022-12-29T07:44:14;99046.94;;;-0.89;59.65
46111;BME280;31849;55.992;37.252;2022-12-29T07:49:18;99052.72;;;-0.71;59.46
46111;BME280;31849;55.992;37.252;2022-12-29T07:54:23;99050.34;;;-0.40;58.96
46111;BME280;31849;55.992;37.252;2022-12-29T07:59:27;99060.38;;;-0.22;58.72
46111;BME280;31849;55.992;37.252;2022-12-29T08:04:30;99062.81;;;-0.25;58.70
46111;BME280;31849;55.992;37.252;2022-12-29T08:09:35;99065.97;;;-0.32;58.77
46111;BME280;31849;55.992;37.252;2022-12-29T08:14:39;99067.28;;;-0.44;58.75
46111;BME280;31849;55.992;37.252;2022-12-29T08:19:43;99067.00;;;-0.51;58.92
46111;BME280;31849;55.992;37.252;2022-12-29T08:24:48;99067.09;;;-0.24;58.31
46111;BME280;31849;55.992;37.252;2022-12-29T08:29:52;99063.22;;;-0.13;58.25
46111;BME280;31849;55.992;37.252;2022-12-29T08:34:55;99072.56;;;-0.13;58.45
46111;BME280;31849;55.992;37.252;2022-12-29T08:40:00;99069.38;;;-0.32;58.79
46111;BME280;31849;55.992;37.252;2022-12-29T08:45:07;99071.69;;;-0.40;59.06
46111;BME280;31849;55.992;37.252;2022-12-29T08:50:11;99082.06;;;-0.09;58.22
46111;BME280;31849;55.992;37.252;2022-12-29T08:55:16;99068.53;;;-0.07;57.81
46111;BME280;31849;55.992;37.252;2022-12-29T09:00:19;99084.16;;;-0.23;58.01
46111;BME280;31849;55.992;37.252;2022-12-29T09:05:24;99076.63;;;-0.44;58.79
46111;BME280;31849;55.992;37.252;2022-12-29T09:10:29;99073.38;;;-0.14;58.30
46111;BME280;31849;55.992;37.252;2022-12-29T09:15:32;99085.03;;;-0.23;58.06
46111;BME280;31849;55.992;37.252;2022-12-29T09:20:36;99064.03;;;-0.64;58.81
46111;BME280;31849;55.992;37.252;2022-12-29T09:25:41;99084.88;;;-0.27;58.17
46111;BME280;31849;55.992;37.252;2022-12-29T09:30:45;99075.69;;;-0.46;59.00
46111;BME280;31849;55.992;37.252;2022-12-29T09:35:51;99084.56;;;-0.37;58.52
46111;BME280;31849;55.992;37.252;2022-12-29T09:41:01;99081.69;;;-0.68;59.46
46111;BME280;31849;55.992;37.252;2022-12-29T09:46:12;99093.44;;;-0.74;59.10
46111;BME280;31849;55.992;37.252;2022-12-29T09:51:22;99080.63;;;-0.75;58.97
46111;BME280;31849;55.992;37.252;2022-12-29T09:56:28;99074.06;;;-0.91;59.28
46111;BME280;31849;55.992;37.252;2022-12-29T10:01:35;99081.22;;;-0.82;59.12
46111;BME280;31849;55.992;37.252;2022-12-29T10:06:43;99077.69;;;-0.38;58.23
46111;BME280;31849;55.992;37.252;2022-12-29T10:12:16;99083.25;;;0.01;58.21
46111;BME280;31849;55.992;37.252;2022-12-29T10:17:37;99074.81;;;-0.23;58.64
46111;BME280;31849;55.992;37.252;2022-12-29T10:22:57;99079.19;;;-0.44;58.69
46111;BME280;31849;55.992;37.252;2022-12-29T10:28:14;99088.56;;;-0.19;58.57
46111;BME280;31849;55.992;37.252;2022-12-29T10:33:22;99092.09;;;0.10;58.04
46111;BME280;31849;55.992;37.252;2022-12-29T10:38:30;99076.19;;;-0.07;58.41
46111;BME280;31849;55.992;37.252;2022-12-29T10:43:44;99070.47;;;-0.25;58.50
46111;BME280;31849;55.992;37.252;2022-12-29T10:48:48;99063.78;;;-0.22;58.66
46111;BME280;31849;55.992;37.252;2022-12-29T10:53:55;99057.75;;;-0.24;58.90
46111;BME280;31849;55.992;37.252;2022-12-29T10:59:10;99052.88;;;0.10;58.57
46111;BME280;31849;55.992;37.252;2022-12-29T11:04:29;99059.19;;;0.20;57.94
46111;BME280;31849;55.992;37.252;2022-12-29T11:09:36;99062.78;;;0.26;57.89
46111;BME280;31849;55.992;37.252;2022-12-29T11:14:45;99057.16;;;0.37;57.48
46111;BME280;31849;55.992;37.252;2022-12-29T11:19:49;99045.72;;;-0.01;58.01
46111;BME280;31849;55.992;37.252;2022-12-29T11:24:54;98979.28;;;-0.52;58.41
46111;BME280;31849;55.992;37.252;2022-12-29T11:29:59;99061.81;;;-0.03;58.39
46111;BME280;31849;55.992;37.252;2022-12-29T11:35:03;99063.06;;;0.08;57.82
46111;BME280;31849;55.992;37.252;2022-12-29T11:40:16;99052.28;;;-0.09;58.46
46111;BME280;31849;55.992;37.252;2022-12-29T11:45:24;99052.16;;;0.14;58.47
46111;BME280;31849;55.992;37.252;2022-12-29T11:50:31;99058.38;;;0.22;58.56
46111;BME280;31849;55.992;37.252;2022-12-29T11:55:35;99062.66;;;0.22;58.58
46111;BME280;31849;55.992;37.252;2022-12-29T12:00:42;99072.25;;;0.29;58.57
46111;BME280;31849;55.992;37.252;2022-12-29T12:05:49;99082.97;;;0.44;57.98
46111;BME280;31849;55.992;37.252;2022-12-29T12:10:58;99077.19;;;0.23;58.28
46111;BME280;31849;55.992;37.252;2022-12-29T12:16:10;99071.22;;;0.24;58.37
46111;BME280;31849;55.992;37.252;2022-12-29T12:21:30;99081.38;;;-0.05;58.72
46111;BME280;31849;55.992;37.252;2022-12-29T12:26:40;99076.44;;;-0.25;59.26
46111;BME280;31849;55.992;37.252;2022-12-29T12:31:50;99072.38;;;-0.44;59.71
46111;BME280;31849;55.992;37.252;2022-12-29T12:37:08;99081.06;;;-0.14;59.14
46111;BME280;31849;55.992;37.252;2022-12-29T12:42:28;99074.00;;;-0.22;59.59
46111;BME280;31849;55.992;37.252;2022-12-29T12:47:47;99078.41;;;0.35;59.09
46111;BME280;31849;55.992;37.252;2022-12-29T12:53:11;99072.97;;;0.25;58.98
46111;BME280;31849;55.992;37.252;2022-12-29T12:58:24;99068.59;;;0.48;58.74
46111;BME280;31849;55.992;37.252;2022-12-29T13:03:44;99076.84;;;0.66;58.94
46111;BME280;31849;55.992;37.252;2022-12-29T13:14:29;99070.63;;;0.58;57.99
46111;BME280;31849;55.992;37.252;2022-12-29T13:19:41;99078.75;;;0.19;58.69
46111;BME280;31849;55.992;37.252;2022-12-29T13:24:55;99087.03;;;0.12;58.86
46111;BME280;31849;55.992;37.252;2022-12-29T13:30:05;99077.06;;;-0.06;59.18
46111;BME280;31849;55.992;37.252;2022-12-29T13:35:35;99081.00;;;0.10;58.64
46111;BME280;31849;55.992;37.252;2022-12-29T13:40:46;99079.44;;;0.13;58.68
46111;BME280;31849;55.992;37.252;2022-12-29T13:46:01;99081.34;;;0.21;58.09
46111;BME280;31849;55.992;37.252;2022-12-29T13:51:08;99078.09;;;-0.01;58.91
46111;BME280;31849;55.992;37.252;2022-12-29T13:56:15;99074.56;;;-0.05;59.39
46111;BME280;31849;55.992;37.252;2022-12-29T14:01:27;99074.31;;;0.13;58.76
46111;BME280;31849;55.992;37.252;2022-12-29T14:06:34;99072.34;;;0.05;59.21
46111;BME280;31849;55.992;37.252;2022-12-29T14:11:42;99064.81;;;0.09;59.28
46111;BME280;31849;55.992;37.252;2022-12-29T14:16:46;99081.56;;;0.01;59.34
46111;BME280;31849;55.992;37.252;2022-12-29T14:21:54;99080.25;;;0.12;59.33
46111;BME280;31849;55.992;37.252;2022-12-29T14:26:59;99088.63;;;0.08;59.04
46111;BME280;31849;55.992;37.252;2022-12-29T14:32:09;99081.06;;;0.11;59.05
46111;BME280;31849;55.992;37.252;2022-12-29T14:37:34;99078.75;;;-0.07;59.51
46111;BME280;31849;55.992;37.252;2022-12-29T14:42:41;99082.56;;;0.05;59.03
46111;BME280;31849;55.992;37.252;2022-12-29T14:47:46;99074.25;;;0.12;59.01
46111;BME280;31849;55.992;37.252;2022-12-29T14:52:53;99079.72;;;0.23;59.07
46111;BME280;31849;55.992;37.252;2022-12-29T14:58:05;99084.66;;;0.16;58.92
46111;BME280;31849;55.992;37.252;2022-12-29T15:03:21;99069.09;;;0.10;59.16
46111;BME280;31849;55.992;37.252;2022-12-29T15:08:30;99084.94;;;0.26;59.27
46111;BME280;31849;55.992;37.252;2022-12-29T15:13:36;99064.66;;;0.05;59.29
46111;BME280;31849;55.992;37.252;2022-12-29T15:18:41;99083.00;;;0.19;59.25
46111;BME280;31849;55.992;37.252;2022-12-29T15:23:49;99084.13;;;0.27;59.29
46111;BME280;31849;55.992;37.252;2022-12-29T15:28:53;99082.78;;;0.38;58.92
46111;BME280;31849;55.992;37.252;2022-12-29T15:34:07;99081.50;;;0.25;59.26
46111;BME280;31849;55.992;37.252;2022-12-29T15:39:20;99066.72;;;0.42;58.62
46111;BME280;31849;55.992;37.252;2022-12-29T15:44:25;99066.38;;;0.31;59.48
46111;BME280;31849;55.992;37.252;2022-12-29T15:49:31;99065.84;;;0.42;58.82
46111;BME280;31849;55.992;37.252;2022-12-29T15:54:38;99039.97;;;0.32;58.71
46111;BME280;31849;55.992;37.252;2022-12-29T15:59:46;99052.66;;;0.29;59.10
46111;BME280;31849;55.992;37.252;2022-12-29T16:04:50;99052.50;;;0.25;59.82
46111;BME280;31849;55.992;37.252;2022-12-29T16:10:25;99051.94;;;0.33;59.00
46111;BME280;31849;55.992;37.252;2022-12-29T16:15:31;99047.41;;;0.25;59.82
46111;BME280;31849;55.992;37.252;2022-12-29T16:20:39;99040.91;;;0.34;59.45
46111;BME280;31849;55.992;37.252;2022-12-29T16:25:44;99035.69;;;0.31;59.37
46111;BME280;31849;55.992;37.252;2022-12-29T16:30:57;99034.00;;;0.32;59.30
46111;BME280;31849;55.992;37.252;2022-12-29T16:36:01;99036.78;;;0.12;60.02
46111;BME280;31849;55.992;37.252;2022-12-29T16:41:07;99032.81;;;0.22;59.54
46111;BME280;31849;55.992;37.252;2022-12-29T16:46:22;99023.13;;;0.39;59.35
46111;BME280;31849;55.992;37.252;2022-12-29T16:51:30;99020.03;;;0.49;59.06
46111;BME280;31849;55.992;37.252;2022-12-29T16:56:36;99024.31;;;0.50;58.88
46111;BME280;31849;55.992;37.252;2022-12-29T17:01:40;99016.31;;;0.40;59.14
46111;BME280;31849;55.992;37.252;2022-12-29T17:06:44;99016.63;;;0.22;59.09
46111;BME280;31849;55.992;37.252;2022-12-29T17:11:51;99008.66;;;0.40;59.04
46111;BME280;31849;55.992;37.252;2022-12-29T17:17:15;99018.44;;;0.53;58.90
46111;BME280;31849;55.992;37.252;2022-12-29T17:22:22;99018.84;;;0.11;59.46
46111;BME280;31849;55.992;37.252;2022-12-29T17:27:32;99007.66;;;0.34;59.63
46111;BME280;31849;55.992;37.252;2022-12-29T17:32:37;99010.88;;;0.29;59.60
46111;BME280;31849;55.992;37.252;2022-12-29T17:37:40;99005.97;;;0.35;59.38
46111;BME280;31849;55.992;37.252;2022-12-29T17:42:46;99003.75;;;0.47;59.32
46111;BME280;31849;55.992;37.252;2022-12-29T17:47:50;98996.59;;;0.35;58.98
46111;BME280;31849;55.992;37.252;2022-12-29T17:52:55;98991.91;;;0.49;58.99
46111;BME280;31849;55.992;37.252;2022-12-29T17:58:14;98975.44;;;0.41;58.94
46111;BME280;31849;55.992;37.252;2022-12-29T18:03:20;98990.19;;;0.21;59.43
46111;BME280;31849;55.992;37.252;2022-12-29T18:08:26;98986.69;;;0.19;59.62
46111;BME280;31849;55.992;37.252;2022-12-29T18:13:32;98978.84;;;0.13;60.12
46111;BME280;31849;55.992;37.252;2022-12-29T18:18:47;98977.69;;;0.03;59.70
46111;BME280;31849;55.992;37.252;2022-12-29T18:23:51;98989.25;;;0.19;59.74
46111;BME280;31849;55.992;37.252;2022-12-29T18:28:56;98992.41;;;0.38;59.62
46111;BME280;31849;55.992;37.252;2022-12-29T18:34:03;98978.91;;;0.42;59.37
46111;BME280;31849;55.992;37.252;2022-12-29T18:39:10;98972.06;;;0.13;60.07
46111;BME280;31849;55.992;37.252;2022-12-29T18:44:15;98971.94;;;0.10;60.34
46111;BME280;31849;55.992;37.252;2022-12-29T18:49:18;98977.47;;;0.23;60.09
46111;BME280;31849;55.992;37.252;2022-12-29T18:54:26;98977.16;;;0.41;59.85
46111;BME280;31849;55.992;37.252;2022-12-29T18:59:31;98973.38;;;0.29;60.46
46111;BME280;31849;55.992;37.252;2022-12-29T19:04:35;98977.56;;;0.26;60.38
46111;BME280;31849;55.992;37.252;2022-12-29T19:09:38;98973.53;;;0.34;60.04
46111;BME280;31849;55.992;37.252;2022-12-29T19:14:43;98964.81;;;0.27;61.12
46111;BME280;31849;55.992;37.252;2022-12-29T19:19:47;98967.19;;;0.21;61.20
46111;BME280;31849;55.992;37.252;2022-12-29T19:24:51;98973.88;;;0.17;61.25
46111;BME280;31849;55.992;37.252;2022-12-29T19:30:02;98963.59;;;0.43;60.97
46111;BME280;31849;55.992;37.252;2022-12-29T19:35:07;98952.00;;;0.56;60.79
46111;BME280;31849;55.992;37.252;2022-12-29T19:40:12;98954.06;;;0.68;60.74
46111;BME280;31849;55.992;37.252;2022-12-29T19:45:18;98946.72;;;0.79;60.29
46111;BME280;31849;55.992;37.252;2022-12-29T19:50:22;98930.31;;;0.72;60.54
46111;BME280;31849;55.992;37.252;2022-12-29T19:55:26;98960.56;;;0.57;60.68
46111;BME280;31849;55.992;37.252;2022-12-29T20:00:31;98946.78;;;0.82;60.55
46111;BME280;31849;55.992;37.252;2022-12-29T20:05:34;98950.91;;;0.77;60.88
46111;BME280;31849;55.992;37.252;2022-12-29T20:10:38;98942.31;;;0.75;60.91
46111;BME280;31849;55.992;37.252;2022-12-29T20:15:43;98946.13;;;0.89;60.86
46111;BME280;31849;55.992;37.252;2022-12-29T20:20:47;98942.75;;;0.90;61.09
46111;BME280;31849;55.992;37.252;2022-12-29T20:25:54;98945.47;;;0.66;61.58
46111;BME280;31849;55.992;37.252;2022-12-29T20:31:01;98932.53;;;0.60;61.23
46111;BME280;31849;55.992;37.252;2022-12-29T20:36:06;98934.22;;;0.61;61.37
46111;BME280;31849;55.992;37.252;2022-12-29T20:41:11;98936.56;;;0.82;60.65
46111;BME280;31849;55.992;37.252;2022-12-29T20:46:16;98923.72;;;0.80;61.02
46111;BME280;31849;55.992;37.252;2022-12-29T20:51:24;98928.97;;;0.85;61.05
46111;BME280;31849;55.992;37.252;2022-12-29T20:56:27;98916.28;;;0.90;60.65
46111;BME280;31849;55.992;37.252;2022-12-29T21:01:34;98904.50;;;0.96;61.36
46111;BME280;31849;55.992;37.252;2022-12-29T21:06:38;98893.81;;;0.79;61.31
46111;BME280;31849;55.992;37.252;2022-12-29T21:11:41;98890.41;;;0.79;61.39
46111;BME280;31849;55.992;37.252;2022-12-29T21:16:46;98880.47;;;0.90;61.30
46111;BME280;31849;55.992;37.252;2022-12-29T21:21:49;98887.09;;;0.83;60.98
46111;BME280;31849;55.992;37.252;2022-12-29T21:26:53;98876.69;;;0.77;60.97
46111;BME280;31849;55.992;37.252;2022-12-29T21:31:57;98874.41;;;0.87;61.61
46111;BME280;31849;55.992;37.252;2022-12-29T21:37:07;98870.28;;;0.93;60.88
46111;BME280;31849;55.992;37.252;2022-12-29T21:42:11;98866.88;;;0.92;61.00
46111;BME280;31849;55.992;37.252;2022-12-29T21:47:15;98860.94;;;0.95;61.27
46111;BME280;31849;55.992;37.252;2022-12-29T21:52:19;98859.78;;;0.82;61.53
46111;BME280;31849;55.992;37.252;2022-12-29T21:57:22;98860.22;;;0.67;61.97
46111;BME280;31849;55.992;37.252;2022-12-29T22:02:44;98848.91;;;0.59;61.94
46111;BME280;31849;55.992;37.252;2022-12-29T22:08:05;98856.53;;;0.57;62.31
46111;BME280;31849;55.992;37.252;2022-12-29T22:13:26;98855.84;;;0.63;62.08
46111;BME280;31849;55.992;37.252;2022-12-29T22:18:31;98865.44;;;0.70;61.88
46111;BME280;31849;55.992;37.252;2022-12-29T22:23:35;98860.34;;;0.72;61.66
46111;BME280;31849;55.992;37.252;2022-12-29T22:28:40;98859.22;;;0.62;62.15
46111;BME280;31849;55.992;37.252;2022-12-29T22:33:45;98834.66;;;0.67;62.36
46111;BME280;31849;55.992;37.252;2022-12-29T22:38:49;98852.63;;;0.70;62.11
46111;BME280;31849;55.992;37.252;2022-12-29T22:43:53;98845.56;;;0.61;62.02
46111;BME280;31849;55.992;37.252;2022-12-29T22:48:58;98851.50;;;0.60;62.21
46111;BME280;31849;55.992;37.252;2022-12-29T22:54:02;98845.63;;;0.63;62.28
46111;BME280;31849;55.992;37.252;2022-12-29T22:59:05;98835.19;;;0.55;62.64
46111;BME280;31849;55.992;37.252;2022-12-29T23:04:11;98825.69;;;0.51;62.18
46111;BME280;31849;55.992;37.252;2022-12-29T23:09:34;98826.00;;;0.63;61.88
46111;BME280;31849;55.992;37.252;2022-12-29T23:14:38;98833.69;;;0.63;61.84
46111;BME280;31849;55.992;37.252;2022-12-29T23:19:42;98846.78;;;0.76;62.21
46111;BME280;31849;55.992;37.252;2022-12-29T23:24:46;98855.00;;;0.64;62.61
46111;BME280;31849;55.992;37.252;2022-12-29T23:29:49;98858.31;;;0.92;61.76
46111;BME280;31849;55.992;37.252;2022-12-29T23:34:54;98852.09;;;0.82;62.14
46111;BME280;31849;55.992;37.252;2022-12-29T23:39:57;98866.25;;;0.69;62.15
46111;BME280;31849;55.992;37.252;2022-12-29T23:45:01;98838.84;;;0.65;62.58
46111;BME280;31849;55.992;37.252;2022-12-29T23:50:07;98844.84;;;0.99;62.50
46111;BME280;31849;55.992;37.252;2022-12-29T23:55:10;98841.94;;;0.85;61.79
